createdAt,value
2023-01-03T00:02:19.832Z,100775.31
2023-01-03T00:04:49.431Z,100773.00
2023-01-03T00:07:34.353Z,100776.84
2023-01-03T00:10:02.288Z,100776.25
2023-01-03T00:12:31.267Z,100775.56
2023-01-03T00:14:59.598Z,100779.22
2023-01-03T00:17:27.440Z,100780.16
2023-01-03T00:19:55.188Z,100787.03
2023-01-03T00:22:22.946Z,100785.91
2023-01-03T00:24:50.736Z,100783.84
2023-01-03T00:27:18.401Z,100776.47
2023-01-03T00:29:46.188Z,100778.81
2023-01-03T00:32:13.906Z,100777.69
2023-01-03T00:34:41.675Z,100791.66
2023-01-03T00:37:10.036Z,100777.59
2023-01-03T00:39:37.813Z,100778.97
2023-01-03T00:42:05.583Z,100778.63
2023-01-03T00:44:33.333Z,100782.63
2023-01-03T00:47:01.451Z,100782.19
2023-01-03T00:49:29.556Z,100791.44
2023-01-03T00:51:57.304Z,100793.50
2023-01-03T00:54:24.950Z,100802.53
2023-01-03T00:56:52.632Z,100797.41
2023-01-03T00:59:21.331Z,100800.13
2023-01-03T01:01:49.470Z,100794.91
2023-01-03T01:04:17.197Z,100800.31
2023-01-03T01:06:44.896Z,100810.22
2023-01-03T01:09:12.574Z,100806.81
2023-01-03T01:11:40.550Z,100816.47
2023-01-03T01:14:20.423Z,100821.66
2023-01-03T01:16:48.012Z,100824.22
2023-01-03T01:19:15.635Z,100818.94
2023-01-03T01:21:43.564Z,100827.81
2023-01-03T01:24:15.906Z,100831.41
2023-01-03T01:26:45.842Z,100832.59
2023-01-03T01:29:13.518Z,100838.97
2023-01-03T01:31:41.284Z,100834.56
2023-01-03T01:34:09.303Z,100831.97
2023-01-03T01:36:37.752Z,100837.28
2023-01-03T01:39:05.879Z,100839.22
2023-01-03T01:41:51.050Z,100845.53
2023-01-03T01:44:35.986Z,100842.19
2023-01-03T01:47:03.660Z,100849.38
2023-01-03T01:49:31.644Z,100853.97
2023-01-03T01:51:59.246Z,100857.63
2023-01-03T01:54:26.892Z,100857.44
2023-01-03T01:56:54.497Z,100863.44
2023-01-03T01:59:22.290Z,100865.91
2023-01-03T02:01:50.299Z,100867.44
2023-01-03T02:04:17.944Z,100869.00
2023-01-03T02:06:45.549Z,100875.84
2023-01-03T02:09:13.201Z,100874.81
2023-01-03T02:11:40.960Z,100873.81
2023-01-03T02:14:08.958Z,100881.84
2023-01-03T02:16:36.646Z,100875.69
2023-01-03T02:19:04.272Z,100872.88
2023-01-03T02:21:31.873Z,100870.16
2023-01-03T02:24:00.111Z,100872.09
2023-01-03T02:26:28.193Z,100867.81
2023-01-03T02:28:55.752Z,100875.06
2023-01-03T02:31:25.552Z,100874.31
2023-01-03T02:33:53.178Z,100876.16
2023-01-03T02:36:20.926Z,100874.44
2023-01-03T02:38:48.551Z,100883.41
2023-01-03T02:41:17.028Z,100892.38
2023-01-03T02:43:46.651Z,100889.88
2023-01-03T02:46:15.085Z,100895.47
2023-01-03T02:48:42.926Z,100901.00
2023-01-03T02:51:10.897Z,100901.25
2023-01-03T02:53:38.558Z,100908.41
2023-01-03T02:56:06.116Z,100903.25
2023-01-03T02:58:33.731Z,100900.53
2023-01-03T03:01:02.102Z,100909.34
2023-01-03T03:03:30.080Z,100905.78
2023-01-03T03:05:57.711Z,100900.41
2023-01-03T03:08:25.640Z,100909.19
2023-01-03T03:11:10.529Z,100909.13
2023-01-03T03:13:38.492Z,100903.75
2023-01-03T03:16:06.170Z,100906.25
2023-01-03T03:18:33.787Z,100901.72
2023-01-03T03:21:18.936Z,100907.72
2023-01-03T03:24:04.039Z,100911.06
2023-01-03T03:26:31.670Z,100909.19
2023-01-03T03:28:58.566Z,100908.28
2023-01-03T03:31:26.245Z,100916.22
2023-01-03T03:33:53.913Z,100915.34
2023-01-03T03:36:21.913Z,100916.28
2023-01-03T03:38:52.623Z,100913.72
2023-01-03T03:41:37.625Z,100914.81
2023-01-03T03:44:22.557Z,100916.06
2023-01-03T03:46:54.638Z,100910.19
2023-01-03T03:49:41.127Z,100918.38
2023-01-03T03:52:08.750Z,100920.41
2023-01-03T03:54:36.356Z,100922.34
2023-01-03T03:57:04.351Z,100928.00
2023-01-03T03:59:31.934Z,100921.16
2023-01-03T04:01:59.873Z,100919.59
2023-01-03T04:04:27.528Z,100923.25
2023-01-03T04:06:55.148Z,100919.09
2023-01-03T04:09:23.095Z,100916.63
2023-01-03T04:11:50.991Z,100925.56
2023-01-03T04:14:18.801Z,100923.84
2023-01-03T04:16:46.366Z,100922.19
2023-01-03T04:19:13.955Z,100922.34
2023-01-03T04:21:41.901Z,100921.63
2023-01-03T04:24:09.461Z,100926.19
2023-01-03T04:26:37.058Z,100929.06
2023-01-03T04:29:04.692Z,100933.66
2023-01-03T04:31:32.286Z,100930.16
2023-01-03T04:34:00.573Z,100923.06
2023-01-03T04:36:28.198Z,100923.94
2023-01-03T04:38:55.939Z,100924.81
2023-01-03T04:41:23.528Z,100936.16
2023-01-03T04:44:02.654Z,100924.59
2023-01-03T04:46:30.181Z,100934.13
2023-01-03T04:48:57.721Z,100931.50
2023-01-03T04:51:25.321Z,100929.06
2023-01-03T04:53:52.891Z,100931.94
2023-01-03T04:56:20.806Z,100931.38
2023-01-03T04:58:48.589Z,100936.09
2023-01-03T05:01:16.328Z,100940.84
2023-01-03T05:03:44.015Z,100942.09
2023-01-03T05:06:12.299Z,100941.66
2023-01-03T05:08:40.462Z,100944.72
2023-01-03T05:11:08.061Z,100940.53
2023-01-03T05:13:35.661Z,100944.00
2023-01-03T05:16:03.571Z,100948.22
2023-01-03T05:18:31.180Z,100946.22
2023-01-03T05:21:16.169Z,100949.50
2023-01-03T05:24:01.032Z,100948.50
2023-01-03T05:26:28.838Z,100951.09
2023-01-03T05:28:56.363Z,100951.09
2023-01-03T05:31:24.367Z,100951.09
2023-01-03T05:33:51.988Z,100955.44
2023-01-03T05:36:19.823Z,100946.47
2023-01-03T05:38:47.590Z,100948.00
2023-01-03T05:41:35.152Z,100945.09
2023-01-03T05:44:02.693Z,100951.03
2023-01-03T05:46:30.302Z,100949.19
2023-01-03T05:48:58.085Z,100950.94
2023-01-03T05:51:25.669Z,100951.81
2023-01-03T05:53:53.600Z,100947.41
2023-01-03T05:56:21.505Z,100956.34
2023-01-03T05:58:49.293Z,100956.53
2023-01-03T06:01:17.006Z,100959.47
2023-01-03T06:03:44.663Z,100960.78
2023-01-03T06:06:12.631Z,100961.31
2023-01-03T06:08:40.199Z,100960.84
2023-01-03T06:11:07.849Z,100955.97
2023-01-03T06:13:35.967Z,100959.84
2023-01-03T06:16:22.882Z,100961.97
2023-01-03T06:18:52.154Z,100956.09
2023-01-03T06:21:19.803Z,100963.47
2023-01-03T06:23:47.816Z,100962.03
2023-01-03T06:26:15.649Z,100968.41
2023-01-03T06:28:45.722Z,100962.50
2023-01-03T06:31:13.330Z,100966.13
2023-01-03T06:33:40.998Z,100966.13
2023-01-03T06:36:08.806Z,100966.13
2023-01-03T06:38:36.721Z,100964.22
2023-01-03T06:41:04.337Z,100966.72
2023-01-03T06:43:32.116Z,100966.59
2023-01-03T06:46:17.155Z,100973.44
2023-01-03T06:49:02.093Z,100970.69
2023-01-03T06:51:47.762Z,100961.75
2023-01-03T06:54:15.363Z,100966.91
2023-01-03T06:56:42.953Z,100968.59
2023-01-03T06:59:10.920Z,100972.94
2023-01-03T07:01:38.680Z,100975.50
2023-01-03T07:04:06.804Z,100963.94
2023-01-03T07:06:34.411Z,100968.19
2023-01-03T07:09:02.069Z,100966.25
2023-01-03T07:11:29.671Z,100958.25
2023-01-03T07:13:59.380Z,100965.28
2023-01-03T07:16:27.055Z,100973.25
2023-01-03T07:18:55.644Z,100960.09
2023-01-03T07:21:23.406Z,100969.94
2023-01-03T07:23:51.085Z,100978.75
2023-01-03T07:26:18.694Z,100981.38
2023-01-03T07:28:46.681Z,100975.97
2023-01-03T07:31:14.621Z,100978.53
2023-01-03T07:33:42.346Z,100987.16
2023-01-03T07:36:12.151Z,100975.47
2023-01-03T07:38:40.133Z,100983.03
2023-01-03T07:41:08.678Z,100986.34
2023-01-03T07:43:38.382Z,100989.50
2023-01-03T07:46:06.539Z,100997.19
2023-01-03T07:48:34.197Z,100996.03
2023-01-03T07:51:01.982Z,101000.13
2023-01-03T07:53:30.064Z,100999.84
2023-01-03T07:55:57.748Z,100997.72
2023-01-03T07:58:25.415Z,100987.75
2023-01-03T08:00:53.146Z,100989.28
2023-01-03T08:03:20.785Z,100989.91
2023-01-03T08:05:49.037Z,100987.06
2023-01-03T08:08:16.764Z,100986.78
2023-01-03T08:11:01.829Z,100994.50
2023-01-03T08:13:29.508Z,100994.22
2023-01-03T08:15:57.607Z,100994.94
2023-01-03T08:18:25.298Z,100991.13
2023-01-03T08:20:55.596Z,100996.19
2023-01-03T08:23:23.439Z,100990.72
2023-01-03T08:25:52.321Z,100989.56
2023-01-03T08:28:20.318Z,100986.69
2023-01-03T08:30:47.909Z,100982.16
2023-01-03T08:33:15.559Z,100982.94
2023-01-03T08:35:43.384Z,100983.75
2023-01-03T08:38:11.140Z,100988.88
2023-01-03T08:40:42.122Z,100990.34
2023-01-03T08:43:10.429Z,100983.22
2023-01-03T08:45:38.101Z,100991.16
2023-01-03T08:48:06.451Z,100972.75
2023-01-03T08:50:34.812Z,100982.56
2023-01-03T08:53:02.838Z,100981.63
2023-01-03T08:55:30.535Z,100977.03
2023-01-03T08:58:00.095Z,100991.94
2023-01-03T09:00:27.772Z,100986.47
2023-01-03T09:02:55.846Z,100985.31
2023-01-03T09:05:24.354Z,100985.88
2023-01-03T09:07:52.443Z,100976.75
2023-01-03T09:10:20.210Z,100974.75
2023-01-03T09:12:48.176Z,100983.22
2023-01-03T09:15:15.917Z,100986.53
2023-01-03T09:17:45.456Z,100990.56
2023-01-03T09:20:13.434Z,100992.03
2023-01-03T09:22:41.303Z,100994.16
2023-01-03T09:25:09.075Z,100995.25
2023-01-03T09:27:37.046Z,100999.75
2023-01-03T09:30:05.475Z,100993.81
2023-01-03T09:32:33.142Z,100982.56
2023-01-03T09:35:01.105Z,100984.69
2023-01-03T09:37:29.011Z,100985.84
2023-01-03T09:39:57.183Z,100987.72
2023-01-03T09:42:42.988Z,100986.03
2023-01-03T09:45:10.759Z,100973.69
2023-01-03T09:47:38.382Z,100978.47
2023-01-03T09:53:11.818Z,100978.53
2023-01-03T09:55:56.400Z,100976.44
2023-01-03T09:58:41.331Z,100984.97
2023-01-03T10:01:26.597Z,100972.09
2023-01-03T10:03:55.575Z,100986.44
2023-01-03T10:06:23.357Z,100977.72
2023-01-03T10:08:51.274Z,100978.56
2023-01-03T10:11:19.283Z,100986.25
2023-01-03T10:13:47.112Z,100976.84
2023-01-03T10:16:15.228Z,100984.53
2023-01-03T10:18:43.062Z,100977.34
2023-01-03T10:21:10.802Z,100982.66
2023-01-03T10:23:38.764Z,100984.72
2023-01-03T10:26:06.464Z,100992.31
2023-01-03T10:28:34.797Z,100990.47
2023-01-03T10:31:07.635Z,100982.88
2023-01-03T10:33:36.364Z,100984.31
2023-01-03T10:36:04.321Z,100982.44
2023-01-03T10:38:35.584Z,100982.94
2023-01-03T10:41:09.198Z,100988.16
2023-01-03T10:43:37.097Z,100994.75
2023-01-03T10:46:05.014Z,100987.19
2023-01-03T10:48:45.708Z,100984.94
2023-01-03T10:51:20.982Z,100980.06
2023-01-03T10:53:49.336Z,100969.53
2023-01-03T10:56:17.358Z,100963.69
2023-01-03T10:58:45.335Z,100956.75
2023-01-03T11:01:13.541Z,100951.50
2023-01-03T11:03:51.040Z,100952.56
2023-01-03T11:06:19.583Z,100955.00
2023-01-03T11:08:47.333Z,100954.28
2023-01-03T11:11:15.135Z,100960.88
2023-01-03T11:13:43.426Z,100950.69
2023-01-03T11:16:11.564Z,100958.00
2023-01-03T11:18:39.593Z,100934.63
2023-01-03T11:21:07.492Z,100941.72
2023-01-03T11:23:35.417Z,100928.53
2023-01-03T11:26:03.567Z,100932.72
2023-01-03T11:28:31.914Z,100946.16
2023-01-03T11:30:59.784Z,100938.41
2023-01-03T11:33:29.751Z,100924.09
2023-01-03T11:35:58.344Z,100930.91
2023-01-03T11:38:26.490Z,100936.47
2023-01-03T11:40:54.939Z,100937.13
2023-01-03T11:43:23.083Z,100939.09
2023-01-03T11:45:51.078Z,100940.22
2023-01-03T11:48:18.972Z,100930.22
2023-01-03T11:50:46.947Z,100922.53
2023-01-03T11:53:15.207Z,100914.94
2023-01-03T11:55:43.076Z,100908.47
2023-01-03T11:58:11.334Z,100913.66
2023-01-03T12:00:39.300Z,100908.50
2023-01-03T12:03:07.582Z,100902.50
2023-01-03T12:05:36.261Z,100900.00
2023-01-03T12:08:03.968Z,100901.75
2023-01-03T12:10:31.901Z,100896.22
2023-01-03T12:13:00.034Z,100892.09
2023-01-03T12:15:28.065Z,100896.63
2023-01-03T12:17:56.458Z,100887.47
2023-01-03T12:20:24.412Z,100885.38
2023-01-03T12:22:52.340Z,100895.59
2023-01-03T12:25:20.338Z,100901.00
2023-01-03T12:27:48.422Z,100898.06
2023-01-03T12:30:16.688Z,100902.00
2023-01-03T12:32:44.745Z,100901.22
2023-01-03T12:35:12.738Z,100895.09
2023-01-03T12:37:40.533Z,100892.84
2023-01-03T12:40:09.087Z,100897.81
2023-01-03T12:42:37.939Z,100904.97
2023-01-03T12:45:05.882Z,100890.78
2023-01-03T12:47:33.711Z,100890.47
2023-01-03T12:50:01.801Z,100890.28
2023-01-03T12:52:29.973Z,100882.41
2023-01-03T12:54:58.120Z,100879.44
2023-01-03T12:57:26.241Z,100876.44
2023-01-03T12:59:54.075Z,100874.97
2023-01-03T13:02:23.094Z,100867.59
2023-01-03T13:04:51.903Z,100873.25
2023-01-03T13:07:20.397Z,100861.94
2023-01-03T13:09:48.373Z,100861.88
2023-01-03T13:12:16.340Z,100853.03
2023-01-03T13:14:44.204Z,100853.03
2023-01-03T13:17:12.073Z,100848.16
2023-01-03T13:19:40.392Z,100849.47
2023-01-03T13:22:08.291Z,100845.94
2023-01-03T13:24:36.178Z,100847.81
2023-01-03T13:27:04.519Z,100837.84
2023-01-03T13:29:32.698Z,100833.63
2023-01-03T13:32:01.169Z,100827.41
2023-01-03T13:34:29.079Z,100839.16
2023-01-03T13:36:57.274Z,100846.34
2023-01-03T13:39:25.139Z,100849.78
2023-01-03T13:41:53.366Z,100846.16
2023-01-03T13:44:22.123Z,100853.16
2023-01-03T13:46:50.144Z,100843.88
2023-01-03T13:49:18.239Z,100846.22
2023-01-03T13:51:46.493Z,100853.13
2023-01-03T13:54:14.711Z,100853.66
2023-01-03T13:56:43.175Z,100849.38
2023-01-03T13:59:11.111Z,100844.78
2023-01-03T14:01:39.027Z,100841.38
2023-01-03T14:04:08.698Z,100838.72
2023-01-03T14:06:36.913Z,100843.00
2023-01-03T14:09:05.152Z,100837.88
2023-01-03T14:11:33.685Z,100851.00
2023-01-03T14:14:01.528Z,100848.97
2023-01-03T14:16:29.599Z,100854.06
2023-01-03T14:18:57.867Z,100857.56
2023-01-03T14:21:26.405Z,100867.56
2023-01-03T14:24:02.122Z,100853.88
2023-01-03T14:26:30.387Z,100862.88
2023-01-03T14:28:58.366Z,100866.94
2023-01-03T14:31:27.532Z,100869.09
2023-01-03T14:33:55.618Z,100864.19
2023-01-03T14:36:23.464Z,100863.69
2023-01-03T14:38:51.510Z,100864.97
2023-01-03T14:41:20.206Z,100875.69
2023-01-03T14:43:48.111Z,100877.28
2023-01-03T14:46:15.989Z,100874.28
2023-01-03T14:48:44.042Z,100881.72
2023-01-03T14:51:11.941Z,100874.00
2023-01-03T14:53:40.469Z,100875.16
2023-01-03T14:56:08.314Z,100877.94
2023-01-03T14:58:36.311Z,100870.13
2023-01-03T15:01:04.397Z,100854.75
2023-01-03T15:03:32.464Z,100862.63
2023-01-03T15:06:01.293Z,100867.00
2023-01-03T15:08:29.704Z,100864.16
2023-01-03T15:10:59.938Z,100865.72
2023-01-03T15:13:28.299Z,100870.00
2023-01-03T15:15:56.331Z,100864.38
2023-01-03T15:18:25.396Z,100870.34
2023-01-03T15:20:53.271Z,100871.97
2023-01-03T15:23:21.064Z,100881.53
2023-01-03T15:25:48.908Z,100882.88
2023-01-03T15:28:16.827Z,100886.09
2023-01-03T15:30:45.114Z,100883.91
2023-01-03T15:33:13.095Z,100887.00
2023-01-03T15:35:41.477Z,100900.56
2023-01-03T15:38:09.248Z,100899.81
2023-01-03T15:40:37.758Z,100903.44
2023-01-03T15:43:20.553Z,100908.47
2023-01-03T15:45:48.914Z,100921.28
2023-01-03T15:48:16.719Z,100911.31
2023-01-03T15:50:44.690Z,100905.66
2023-01-03T15:53:12.657Z,100907.19
2023-01-03T15:55:41.108Z,100903.59
2023-01-03T15:58:08.979Z,100908.78
2023-01-03T16:00:37.053Z,100901.75
2023-01-03T16:03:05.189Z,100912.59
2023-01-03T16:05:33.187Z,100899.75
2023-01-03T16:08:01.781Z,100898.50
2023-01-03T16:10:29.979Z,100905.22
2023-01-03T16:12:57.713Z,100902.16
2023-01-03T16:15:25.696Z,100902.63
2023-01-03T16:17:53.605Z,100902.38
2023-01-03T16:20:21.963Z,100895.97
2023-01-03T16:22:59.855Z,100890.50
2023-01-03T16:25:29.253Z,100885.81
2023-01-03T16:27:57.224Z,100895.25
2023-01-03T16:30:26.108Z,100894.72
2023-01-03T16:32:55.280Z,100889.09
2023-01-03T16:35:23.388Z,100884.25
2023-01-03T16:37:51.850Z,100879.41
2023-01-03T16:40:19.845Z,100876.34
2023-01-03T16:42:48.805Z,100874.13
2023-01-03T16:45:17.778Z,100872.66
2023-01-03T16:47:45.614Z,100872.31
2023-01-03T16:50:13.589Z,100880.03
2023-01-03T16:52:41.473Z,100886.84
2023-01-03T16:55:09.906Z,100891.09
2023-01-03T16:57:38.403Z,100896.91
2023-01-03T17:00:06.524Z,100900.88
2023-01-03T17:02:34.540Z,100901.03
2023-01-03T17:05:03.004Z,100903.69
2023-01-03T17:07:31.572Z,100892.97
2023-01-03T17:09:59.695Z,100891.09
2023-01-03T17:12:27.594Z,100894.78
2023-01-03T17:14:55.801Z,100892.22
2023-01-03T17:17:23.621Z,100888.78
2023-01-03T17:20:07.340Z,100898.44
2023-01-03T17:22:35.344Z,100896.50
2023-01-03T17:25:03.276Z,100886.75
2023-01-03T17:27:33.164Z,100882.31
2023-01-03T17:30:02.190Z,100884.03
2023-01-03T17:32:30.875Z,100883.16
2023-01-03T17:34:58.800Z,100883.00
2023-01-03T17:37:26.706Z,100887.31
2023-01-03T17:39:54.927Z,100886.19
2023-01-03T17:42:23.469Z,100881.53
2023-01-03T17:45:05.185Z,100878.63
2023-01-03T17:47:50.503Z,100881.72
2023-01-03T17:50:18.613Z,100888.59
2023-01-03T17:52:51.978Z,100883.88
2023-01-03T17:55:23.524Z,100882.81
2023-01-03T17:57:51.477Z,100878.88
2023-01-03T18:00:19.475Z,100885.72
2023-01-03T18:02:48.484Z,100881.03
2023-01-03T18:05:24.335Z,100885.91
2023-01-03T18:07:54.917Z,100878.75
2023-01-03T18:10:22.988Z,100888.41
2023-01-03T18:12:51.514Z,100888.16
2023-01-03T18:15:19.608Z,100880.28
2023-01-03T18:17:47.540Z,100876.78
2023-01-03T18:20:15.309Z,100880.28
2023-01-03T18:22:43.270Z,100877.56
2023-01-03T18:25:14.134Z,100881.97
2023-01-03T18:27:44.549Z,100874.81
2023-01-03T18:30:12.341Z,100871.22
2023-01-03T18:32:40.277Z,100867.63
2023-01-03T18:35:08.254Z,100870.09
2023-01-03T18:37:36.653Z,100862.03
2023-01-03T18:40:04.442Z,100863.72
2023-01-03T18:42:50.272Z,100862.88
2023-01-03T18:45:18.443Z,100853.97
2023-01-03T18:47:46.717Z,100856.53
2023-01-03T18:50:14.835Z,100852.94
2023-01-03T18:52:42.590Z,100846.78
2023-01-03T18:55:10.424Z,100849.59
2023-01-03T18:57:38.719Z,100851.50
2023-01-03T19:00:08.095Z,100844.41
2023-01-03T19:02:36.308Z,100849.75
2023-01-03T19:05:05.066Z,100846.34
2023-01-03T19:07:32.901Z,100837.34
2023-01-03T19:10:00.927Z,100836.47
2023-01-03T19:12:29.012Z,100829.47
2023-01-03T19:14:56.850Z,100831.25
2023-01-03T19:17:24.692Z,100830.41
2023-01-03T19:19:52.753Z,100834.78
2023-01-03T19:22:21.010Z,100823.06
2023-01-03T19:24:49.225Z,100819.66
2023-01-03T19:27:17.519Z,100805.59
2023-01-03T19:29:45.408Z,100795.81
2023-01-03T19:32:13.282Z,100787.88
2023-01-03T19:34:41.412Z,100784.38
2023-01-03T19:37:09.654Z,100786.09
2023-01-03T19:39:37.990Z,100788.72
2023-01-03T19:42:23.456Z,100778.19
2023-01-03T19:44:51.730Z,100775.53
2023-01-03T19:47:20.715Z,100767.66
2023-01-03T19:49:48.710Z,100765.97
2023-01-03T19:52:16.495Z,100762.53
2023-01-03T19:54:44.347Z,100756.38
2023-01-03T19:57:12.733Z,100752.13
2023-01-03T19:59:40.968Z,100753.06
2023-01-03T20:02:25.617Z,100745.13
2023-01-03T20:04:54.099Z,100741.66
2023-01-03T20:07:23.908Z,100734.66
2023-01-03T20:09:52.131Z,100736.56
2023-01-03T20:12:20.154Z,100739.47
2023-01-03T20:14:48.047Z,100742.00
2023-01-03T20:17:16.123Z,100730.38
2023-01-03T20:19:44.393Z,100735.59
2023-01-03T20:22:30.511Z,100730.38
2023-01-03T20:25:00.550Z,100732.09
2023-01-03T20:27:28.927Z,100735.53
2023-01-03T20:29:56.815Z,100729.44
2023-01-03T20:32:25.784Z,100729.34
2023-01-03T20:34:53.627Z,100729.34
2023-01-03T20:37:21.555Z,100721.41
2023-01-03T20:39:49.617Z,100725.94
2023-01-03T20:42:17.432Z,100719.75
2023-01-03T20:44:45.617Z,100726.03
2023-01-03T20:47:13.750Z,100714.56
2023-01-03T20:49:41.643Z,100719.97
2023-01-03T20:52:09.483Z,100728.84
2023-01-03T20:54:38.120Z,100716.44
2023-01-03T20:57:06.597Z,100724.38
2023-01-03T20:59:34.452Z,100703.97
2023-01-03T21:02:02.952Z,100705.47
2023-01-03T21:04:30.990Z,100679.72
2023-01-03T21:06:59.015Z,100679.72
2023-01-03T21:09:27.328Z,100675.28
2023-01-03T21:11:55.723Z,100662.03
2023-01-03T21:14:23.620Z,100662.03
2023-01-03T21:16:51.563Z,100666.38
2023-01-03T21:19:20.290Z,100667.31
2023-01-03T21:21:48.750Z,100666.38
2023-01-03T21:24:16.749Z,100661.06
2023-01-03T21:26:44.647Z,100666.31
2023-01-03T21:29:12.676Z,100661.75
2023-01-03T21:31:40.891Z,100661.81
2023-01-03T21:34:09.089Z,100669.03
2023-01-03T21:36:36.917Z,100656.03
2023-01-03T21:39:04.958Z,100670.25
2023-01-03T21:41:32.900Z,100664.06
2023-01-03T21:44:00.688Z,100655.34
2023-01-03T21:46:29.185Z,100658.19
2023-01-03T21:48:57.126Z,100654.75
2023-01-03T21:51:35.371Z,100673.44
2023-01-03T21:54:06.348Z,100662.97
2023-01-03T21:56:36.366Z,100661.28
2023-01-03T21:59:04.744Z,100648.97
2023-01-03T22:01:53.155Z,100662.31
2023-01-03T22:04:19.906Z,100643.84
2023-01-03T22:06:48.638Z,100650.00
2023-01-03T22:09:30.173Z,100656.06
2023-01-03T22:11:58.225Z,100636.66
2023-01-03T22:14:26.749Z,100624.34
2023-01-03T22:16:55.460Z,100632.31
2023-01-03T22:19:23.437Z,100622.66
2023-01-03T22:21:51.336Z,100611.09
2023-01-03T22:24:19.356Z,100624.34
2023-01-03T22:26:47.205Z,100596.03
2023-01-03T22:29:15.581Z,100609.28
2023-01-03T22:31:43.534Z,100588.94
2023-01-03T22:34:11.520Z,100601.25
2023-01-03T22:36:39.852Z,100589.75
2023-01-03T22:39:07.747Z,100588.94
2023-01-03T22:41:35.786Z,100592.41
2023-01-03T22:44:03.717Z,100573.97
2023-01-03T22:46:31.719Z,100593.47
2023-01-03T22:48:59.572Z,100585.53
2023-01-03T22:51:27.450Z,100602.28
2023-01-03T22:53:56.016Z,100601.44
2023-01-03T22:56:23.808Z,100589.88
2023-01-03T22:58:52.062Z,100582.75
2023-01-03T23:01:20.144Z,100580.09
2023-01-03T23:03:50.441Z,100575.59
2023-01-03T23:06:18.871Z,100588.84
2023-01-03T23:08:47.684Z,100577.38
2023-01-03T23:11:34.863Z,100572.16
2023-01-03T23:14:03.511Z,100567.72
2023-01-03T23:16:32.693Z,100553.44
2023-01-03T23:19:00.538Z,100532.03
2023-01-03T23:21:28.362Z,100548.41
2023-01-03T23:23:56.062Z,100536.69
2023-01-03T23:26:23.899Z,100539.94
2023-01-03T23:28:52.245Z,100543.34
2023-01-03T23:31:20.157Z,100537.97
2023-01-03T23:33:47.885Z,100528.94
2023-01-03T23:36:15.719Z,100551.88
2023-01-03T23:38:43.643Z,100527.84
2023-01-03T23:41:13.407Z,100514.59
2023-01-03T23:43:41.294Z,100516.22
2023-01-03T23:46:09.067Z,100501.13
2023-01-03T23:48:37.059Z,100499.34
2023-01-03T23:51:04.843Z,100496.41
2023-01-03T23:53:33.165Z,100493.66
2023-01-03T23:56:00.895Z,100476.50
2023-01-03T23:58:28.699Z,100462.00
